Time;durP1;ratioP1;P1;durP2;ratioP2;P2;SDS_P1;SDS_P2;PMS_P1;PMS_P2;Temp;Humidity;BMP_temperature;BMP_pressure;BME280_temperature;BME280_humidity;BME280_pressure;Samples;Min_cycle;Max_cycle;Signal;HPM_P1;HPM_P2
2024/01/23 00:00:16;;;;;;;1.63;0.60;;;22.00;33.50;;;;;;5111961;28;20093;-35
2024/01/23 00:02:42;;;;;;;1.27;0.68;;;22.10;33.60;;;;;;5112392;28;20024;-36
2024/01/23 00:05:08;;;;;;;2.78;0.80;;;22.10;33.40;;;;;;5113004;28;20031;-38
2024/01/23 00:07:34;;;;;;;1.15;0.70;;;22.00;33.40;;;;;;5113029;28;20062;-33
2024/01/23 00:10:00;;;;;;;1.00;0.70;;;22.00;33.50;;;;;;5114907;28;20555;-38
2024/01/23 00:12:26;;;;;;;0.90;0.60;;;22.00;33.50;;;;;;5111501;28;20032;-36
2024/01/23 00:14:54;;;;;;;0.90;0.60;;;22.00;33.50;;;;;;5114154;28;20118;-37
2024/01/23 00:17:20;;;;;;;0.52;0.52;;;22.00;33.40;;;;;;5113239;28;20047;-34
2024/01/23 00:19:47;;;;;;;0.70;0.70;;;22.00;33.40;;;;;;5113069;28;20028;-38
2024/01/23 00:22:13;;;;;;;1.33;0.67;;;22.00;33.40;;;;;;5112941;28;20575;-34
2024/01/23 00:24:39;;;;;;;0.75;0.65;;;22.00;33.40;;;;;;5112897;28;20082;-38
2024/01/23 00:27:05;;;;;;;1.15;0.70;;;21.90;33.50;;;;;;5112691;28;20103;-35
2024/01/23 00:29:34;;;;;;;0.93;0.70;;;22.00;33.50;;;;;;5112456;28;20031;-36
2024/01/23 00:32:01;;;;;;;1.40;0.80;;;22.00;33.50;;;;;;5109432;28;20028;-35
2024/01/23 00:34:27;;;;;;;1.13;0.80;;;22.00;33.40;;;;;;5118627;28;20082;-34
2024/01/23 00:36:54;;;;;;;1.17;0.60;;;22.00;33.40;;;;;;5112442;28;20034;-37
2024/01/23 00:39:22;;;;;;;0.80;0.80;;;21.90;33.40;;;;;;5122457;28;20016;-38
2024/01/23 00:41:48;;;;;;;0.80;0.60;;;21.90;33.50;;;;;;5116690;28;20028;-34
2024/01/23 00:44:15;;;;;;;0.95;0.73;;;21.90;33.50;;;;;;5117805;28;20054;-33
2024/01/23 00:46:41;;;;;;;0.93;0.63;;;21.90;33.50;;;;;;5116375;28;20043;-36
2024/01/23 00:49:07;;;;;;;0.93;0.77;;;22.00;33.50;;;;;;5123593;28;20020;-37
2024/01/23 00:51:33;;;;;;;1.63;1.00;;;22.00;33.50;;;;;;5122302;28;20020;-37
2024/01/23 00:54:00;;;;;;;0.97;0.77;;;21.90;33.40;;;;;;5120636;28;20046;-38
2024/01/23 00:56:26;;;;;;;1.40;0.80;;;21.90;33.50;;;;;;5118161;28;20032;-36
2024/01/23 00:58:53;;;;;;;1.00;0.80;;;21.90;33.50;;;;;;5123767;28;20031;-38
2024/01/23 01:01:19;;;;;;;1.25;0.90;;;21.90;33.50;;;;;;5116214;28;20035;-36
2024/01/23 01:03:45;;;;;;;0.90;0.70;;;21.90;33.50;;;;;;5122155;28;20476;-33
2024/01/23 01:06:11;;;;;;;1.00;0.90;;;21.90;33.50;;;;;;5116850;28;20034;-35
2024/01/23 01:08:37;;;;;;;0.95;0.80;;;21.90;33.60;;;;;;5122372;28;20040;-32
2024/01/23 01:11:04;;;;;;;1.00;0.90;;;21.80;33.80;;;;;;5118338;28;20043;-34
2024/01/23 01:13:30;;;;;;;1.05;0.80;;;21.80;33.80;;;;;;5111313;28;20032;-33
2024/01/23 01:15:57;;;;;;;1.23;0.80;;;21.90;33.80;;;;;;5111589;28;20054;-34
2024/01/23 01:18:23;;;;;;;1.27;0.80;;;21.90;33.70;;;;;;5114281;27;20043;-35
2024/01/23 01:20:49;;;;;;;1.30;0.80;;;21.90;33.70;;;;;;5112491;28;20091;-34
2024/01/23 01:23:16;;;;;;;1.13;0.80;;;21.80;33.70;;;;;;5116125;28;20035;-36
2024/01/23 01:25:45;;;;;;;;;;;21.80;33.70;;;;;;5114041;28;20031;-36
2024/01/23 01:28:12;;;;;;;1.25;0.80;;;21.80;33.80;;;;;;5110545;27;19955;-37
2024/01/23 01:30:38;;;;;;;0.82;0.70;;;21.80;33.70;;;;;;5111863;27;20036;-35
2024/01/23 01:33:05;;;;;;;1.10;0.90;;;21.90;33.80;;;;;;5119695;28;20083;-36
2024/01/23 01:35:32;;;;;;;1.15;1.02;;;21.80;33.60;;;;;;5112775;28;20058;-36
2024/01/23 01:37:58;;;;;;;1.02;0.70;;;21.80;33.70;;;;;;5122641;27;20118;-37
2024/01/23 01:40:25;;;;;;;0.93;0.80;;;21.80;33.80;;;;;;5116222;28;20034;-36
2024/01/23 01:42:52;;;;;;;;;;;21.70;33.80;;;;;;5120808;28;20469;-34
2024/01/23 01:45:18;;;;;;;1.00;0.90;;;21.80;33.90;;;;;;5114771;27;19912;-37
2024/01/23 01:47:46;;;;;;;1.15;0.88;;;21.80;34.00;;;;;;5109813;28;20043;-36
2024/01/23 01:50:12;;;;;;;1.27;1.00;;;21.80;34.00;;;;;;5102380;28;20083;-36
2024/01/23 01:52:39;;;;;;;1.75;1.00;;;21.80;34.10;;;;;;5121590;28;20027;-34
2024/01/23 01:55:06;;;;;;;0.85;0.70;;;21.70;34.00;;;;;;5113972;28;20208;-36
2024/01/23 01:57:33;;;;;;;2.05;0.82;;;21.70;34.00;;;;;;5119991;28;20031;-36
2024/01/23 02:00:00;;;;;;;;;;;21.70;33.90;;;;;;5115736;28;20489;-36
2024/01/23 02:02:26;;;;;;;1.15;0.90;;;21.80;33.90;;;;;;5115096;27;19915;-36
2024/01/23 02:04:52;;;;;;;1.03;0.90;;;21.80;33.90;;;;;;5114143;28;20023;-36
2024/01/23 02:07:18;;;;;;;2.55;1.13;;;21.80;33.90;;;;;;5121074;28;20039;-34
2024/01/23 02:09:45;;;;;;;1.23;1.08;;;21.70;34.50;;;;;;5121832;28;20473;-36
2024/01/23 02:12:11;;;;;;;1.25;0.95;;;21.70;33.90;;;;;;5112302;28;20039;-37
2024/01/23 02:14:37;;;;;;;1.33;0.95;;;21.70;34.00;;;;;;5116190;28;20220;-35
2024/01/23 02:17:03;;;;;;;1.33;0.93;;;21.80;34.00;;;;;;5113412;28;20028;-38
2024/01/23 02:19:29;;;;;;;1.30;1.05;;;21.80;33.90;;;;;;5117891;28;20031;-36
2024/01/23 02:21:55;;;;;;;1.30;0.90;;;21.70;34.30;;;;;;5110507;28;20028;-38
2024/01/23 02:24:22;;;;;;;2.70;1.23;;;21.70;33.90;;;;;;5105193;28;20028;-35
2024/01/23 02:26:48;;;;;;;1.10;1.00;;;21.70;34.00;;;;;;5114528;28;20024;-38
2024/01/23 02:29:16;;;;;;;1.70;1.10;;;21.70;34.00;;;;;;5119991;28;20121;-32
2024/01/23 02:31:42;;;;;;;1.40;1.30;;;21.70;34.00;;;;;;5115270;28;20035;-36
2024/01/23 02:34:08;;;;;;;2.07;1.40;;;21.70;33.90;;;;;;5115143;28;20027;-37
2024/01/23 02:36:39;;;;;;;2.63;1.20;;;21.70;33.90;;;;;;5114377;27;20310;-37
2024/01/23 02:39:08;;;;;;;1.75;1.30;;;21.70;34.00;;;;;;5113281;28;20058;-33
2024/01/23 02:41:35;;;;;;;1.00;0.90;;;21.70;34.30;;;;;;5114345;28;20058;-37
2024/01/23 02:44:01;;;;;;;1.42;1.05;;;21.70;34.30;;;;;;5113768;28;20032;-35
2024/01/23 02:46:27;;;;;;;1.77;1.05;;;21.70;34.10;;;;;;5113323;28;20027;-37
2024/01/23 02:48:53;;;;;;;1.10;1.00;;;21.70;34.10;;;;;;5115001;28;20043;-34
2024/01/23 02:51:19;;;;;;;1.30;1.10;;;21.70;34.70;;;;;;5111429;28;20032;-37
2024/01/23 02:53:46;;;;;;;2.50;1.35;;;21.70;34.20;;;;;;5109032;28;20036;-34
2024/01/23 02:56:12;;;;;;;1.70;1.20;;;21.60;34.20;;;;;;5113111;28;20039;-36
2024/01/23 02:58:42;;;;;;;1.35;1.20;;;21.60;34.20;;;;;;5112263;28;20107;-36
2024/01/23 03:01:08;;;;;;;1.70;1.20;;;21.70;34.20;;;;;;5113489;28;20034;-36
2024/01/23 03:03:34;;;;;;;1.40;1.05;;;21.70;34.20;;;;;;5109570;28;20054;-33
2024/01/23 03:06:01;;;;;;;3.13;1.30;;;21.70;34.10;;;;;;5115704;28;20110;-38
2024/01/23 03:08:27;;;;;;;1.67;1.00;;;21.70;34.10;;;;;;5108187;28;20028;-32
2024/01/23 03:10:53;;;;;;;1.60;1.17;;;21.70;34.10;;;;;;5113508;28;20027;-35
2024/01/23 03:13:19;;;;;;;1.35;1.20;;;21.60;34.20;;;;;;5111233;28;20026;-37
2024/01/23 03:15:48;;;;;;;1.40;1.02;;;21.70;34.20;;;;;;5113066;28;20787;-37
2024/01/23 03:18:14;;;;;;;1.30;1.20;;;21.70;34.10;;;;;;5110331;28;20109;-37
2024/01/23 03:20:40;;;;;;;1.23;1.02;;;21.70;34.10;;;;;;5107126;28;20031;-37
2024/01/23 03:23:08;;;;;;;1.60;1.30;;;21.70;34.10;;;;;;5111818;28;20119;-35
2024/01/23 03:25:34;;;;;;;1.55;0.95;;;21.60;34.20;;;;;;5113396;28;20039;-37
2024/01/23 03:28:00;;;;;;;1.88;1.33;;;21.60;34.20;;;;;;5106997;28;20050;-35
2024/01/23 03:30:32;;;;;;;1.40;1.25;;;21.60;34.20;;;;;;5114593;28;20036;-36
2024/01/23 03:32:59;;;;;;;1.40;1.20;;;21.70;34.10;;;;;;5118886;28;20051;-38
2024/01/23 03:35:25;;;;;;;1.40;1.13;;;21.70;34.10;;;;;;5115698;28;20039;-38
2024/01/23 03:37:52;;;;;;;1.50;1.20;;;21.70;34.10;;;;;;5108306;28;20031;-37
2024/01/23 03:40:18;;;;;;;1.38;1.27;;;21.60;34.20;;;;;;5113401;28;20045;-37
2024/01/23 03:42:44;;;;;;;1.20;1.02;;;21.60;34.40;;;;;;5111652;28;20063;-33
2024/01/23 03:45:10;;;;;;;1.38;1.27;;;21.60;34.40;;;;;;5116120;28;20615;-38
2024/01/23 03:47:36;;;;;;;1.45;1.20;;;21.70;34.30;;;;;;5118639;28;20065;-36
2024/01/23 03:50:03;;;;;;;1.75;1.25;;;21.70;34.20;;;;;;5112110;28;20092;-37
2024/01/23 03:52:31;;;;;;;1.23;1.10;;;21.60;34.20;;;;;;5107481;28;20056;-38
2024/01/23 03:54:57;;;;;;;1.95;1.33;;;21.60;34.20;;;;;;5107535;28;20066;-36
2024/01/23 03:57:23;;;;;;;1.55;1.30;;;21.60;34.30;;;;;;5110202;28;20027;-36
2024/01/23 03:59:50;;;;;;;1.35;1.10;;;21.60;34.20;;;;;;5106338;28;20035;-35
2024/01/23 04:02:16;;;;;;;1.52;1.10;;;21.70;34.30;;;;;;5113321;28;20050;-36
2024/01/23 04:04:42;;;;;;;1.50;1.20;;;21.70;34.20;;;;;;5112090;28;20042;-35
2024/01/23 04:07:09;;;;;;;1.40;1.20;;;21.70;34.30;;;;;;5117869;28;20027;-36
2024/01/23 04:09:35;;;;;;;1.48;1.17;;;21.60;34.30;;;;;;5116199;28;20024;-33
2024/01/23 04:12:01;;;;;;;1.83;1.35;;;21.60;34.30;;;;;;5115992;28;20024;-35
2024/01/23 04:14:27;;;;;;;1.20;1.10;;;21.70;34.30;;;;;;5116779;28;20809;-32
2024/01/23 04:16:53;;;;;;;1.70;1.20;;;21.70;34.20;;;;;;5111085;28;20028;-33
2024/01/23 04:19:19;;;;;;;1.17;1.08;;;21.70;34.20;;;;;;5120765;28;20028;-35
2024/01/23 04:21:46;;;;;;;2.13;1.10;;;21.70;34.30;;;;;;5113196;28;20095;-38
2024/01/23 04:24:12;;;;;;;2.08;1.05;;;21.70;34.30;;;;;;5117149;28;20031;-36
2024/01/23 04:26:46;;;;;;;1.70;1.10;;;21.60;34.30;;;;;;5107427;28;20066;-37
2024/01/23 04:29:12;;;;;;;1.25;1.02;;;21.60;34.30;;;;;;5106544;28;20447;-42
2024/01/23 04:31:38;;;;;;;1.45;1.10;;;21.70;34.30;;;;;;5109721;28;20039;-35
2024/01/23 04:34:05;;;;;;;1.33;1.05;;;21.70;34.30;;;;;;5109707;28;20020;-36
2024/01/23 04:36:31;;;;;;;1.48;1.20;;;21.70;34.30;;;;;;5119690;28;20030;-33
2024/01/23 04:38:57;;;;;;;1.10;1.00;;;21.70;34.30;;;;;;5120774;28;20087;-35
2024/01/23 04:41:24;;;;;;;1.42;1.05;;;21.60;34.30;;;;;;5117888;28;20027;-38
2024/01/23 04:43:50;;;;;;;1.05;0.95;;;21.70;34.40;;;;;;5106301;28;20036;-37
2024/01/23 04:46:17;;;;;;;1.30;1.02;;;21.70;34.30;;;;;;5106588;28;20055;-36
2024/01/23 04:48:43;;;;;;;0.80;0.80;;;21.70;34.30;;;;;;5119668;28;20039;-33
2024/01/23 04:51:09;;;;;;;1.65;1.10;;;21.70;34.30;;;;;;5120206;28;20020;-36
2024/01/23 04:53:35;;;;;;;1.37;1.23;;;21.70;34.50;;;;;;5114372;28;20047;-38
2024/01/23 04:56:02;;;;;;;1.38;1.20;;;21.60;34.60;;;;;;5113627;28;20296;-36
2024/01/23 04:58:29;;;;;;;1.75;1.20;;;21.60;34.60;;;;;;5113797;28;20027;-33
2024/01/23 05:00:55;;;;;;;1.35;1.10;;;21.70;34.50;;;;;;5113852;28;20070;-34
2024/01/23 05:03:21;;;;;;;1.63;1.17;;;21.70;34.50;;;;;;5119648;28;20023;-35
2024/01/23 05:05:48;;;;;;;1.40;1.10;;;21.70;34.40;;;;;;5113411;28;20020;-36
2024/01/23 05:08:15;;;;;;;1.40;1.13;;;21.70;34.50;;;;;;5106590;28;20039;-36
2024/01/23 05:10:43;;;;;;;1.20;1.10;;;21.60;34.50;;;;;;5117992;28;20035;-36
2024/01/23 05:13:09;;;;;;;2.72;1.17;;;21.70;34.50;;;;;;5105385;28;20085;-38
2024/01/23 05:15:36;;;;;;;1.30;1.02;;;21.70;34.40;;;;;;5118435;28;20028;-33
2024/01/23 05:18:06;;;;;;;1.25;1.05;;;21.70;34.40;;;;;;5114363;28;20031;-34
2024/01/23 05:20:35;;;;;;;1.20;1.10;;;21.70;34.40;;;;;;5113584;28;20111;-35
2024/01/23 05:23:05;;;;;;;1.13;1.02;;;21.70;34.50;;;;;;5121470;28;20057;-36
2024/01/23 05:25:31;;;;;;;1.63;1.00;;;21.70;34.50;;;;;;5121348;28;20023;-35
2024/01/23 05:27:57;;;;;;;1.45;1.13;;;21.70;34.50;;;;;;5112181;28;20032;-36
2024/01/23 05:30:29;;;;;;;1.50;1.20;;;21.70;34.40;;;;;;5115371;28;20050;-34
2024/01/23 05:32:55;;;;;;;1.35;1.02;;;21.70;34.40;;;;;;5115964;28;20020;-36
2024/01/23 05:35:21;;;;;;;2.15;1.15;;;21.70;34.40;;;;;;5117841;28;20139;-38
2024/01/23 05:37:47;;;;;;;1.40;1.27;;;21.70;34.50;;;;;;5112293;28;20019;-36
2024/01/23 05:40:13;;;;;;;1.10;0.82;;;21.70;34.60;;;;;;5118712;28;20024;-38
2024/01/23 05:42:40;;;;;;;1.47;1.03;;;21.70;34.80;;;;;;5112386;28;20107;-38
2024/01/23 05:45:06;;;;;;;1.40;1.17;;;21.70;34.70;;;;;;5117394;27;20028;-35
2024/01/23 05:47:32;;;;;;;1.50;1.17;;;21.70;34.50;;;;;;5120423;28;20080;-36
2024/01/23 05:49:59;;;;;;;1.73;1.25;;;21.70;34.50;;;;;;5120521;28;20042;-37
2024/01/23 05:52:26;;;;;;;1.38;1.00;;;21.70;34.50;;;;;;5120175;28;20028;-36
2024/01/23 05:54:52;;;;;;;1.20;1.08;;;21.70;34.60;;;;;;5114748;28;20054;-36
2024/01/23 05:57:18;;;;;;;1.00;0.80;;;21.70;34.50;;;;;;5118090;27;20031;-36
2024/01/23 05:59:44;;;;;;;1.67;1.23;;;21.70;34.40;;;;;;5113562;28;20027;-35
2024/01/23 06:02:10;;;;;;;1.67;1.20;;;21.70;34.40;;;;;;5115715;28;20034;-36
2024/01/23 06:04:37;;;;;;;1.50;1.10;;;21.70;34.30;;;;;;5112705;28;20039;-36
2024/01/23 06:07:06;;;;;;;1.50;1.15;;;21.70;34.30;;;;;;5116293;28;20055;-36
2024/01/23 06:09:33;;;;;;;1.70;1.20;;;21.70;34.40;;;;;;5113963;27;20055;-36
2024/01/23 06:11:59;;;;;;;1.55;1.17;;;21.70;34.40;;;;;;5116162;28;20083;-37
2024/01/23 06:14:25;;;;;;;1.45;1.05;;;21.70;34.40;;;;;;5112917;28;20093;-35
2024/01/23 06:16:51;;;;;;;1.73;0.90;;;21.70;34.40;;;;;;5115307;28;20028;-37
2024/01/23 06:19:20;;;;;;;2.03;1.10;;;21.70;34.30;;;;;;5114985;28;20047;-34
2024/01/23 06:21:46;;;;;;;1.73;1.20;;;21.70;34.40;;;;;;5113948;28;20055;-32
2024/01/23 06:24:12;;;;;;;13.52;2.90;;;21.70;34.40;;;;;;5114400;28;20038;-35
2024/01/23 06:26:39;;;;;;;12.23;2.80;;;21.70;34.40;;;;;;5113788;28;20460;-34
2024/01/23 06:29:05;;;;;;;6.35;2.33;;;21.70;34.40;;;;;;5114431;28;20047;-37
2024/01/23 06:31:31;;;;;;;5.50;2.30;;;21.80;34.50;;;;;;5115602;28;20039;-36
2024/01/23 06:33:57;;;;;;;4.55;1.90;;;21.80;34.50;;;;;;5122182;28;20039;-38
2024/01/23 06:36:23;;;;;;;6.45;1.80;;;21.80;34.80;;;;;;5109556;28;20024;-37
2024/01/23 06:38:49;;;;;;;3.55;1.75;;;21.70;34.90;;;;;;5114450;28;20034;-34
2024/01/23 06:41:34;;;;;;;3.58;1.40;;;21.70;34.90;;;;;;5122197;28;20032;-37
2024/01/23 06:44:00;;;;;;;3.05;1.50;;;21.70;34.80;;;;;;5116746;28;20031;-33
2024/01/23 06:46:26;;;;;;;2.28;1.75;;;21.70;34.60;;;;;;5121072;28;20038;-37
2024/01/23 06:48:53;;;;;;;3.83;1.80;;;21.80;34.60;;;;;;5113410;27;20035;-34
2024/01/23 06:51:21;;;;;;;3.00;1.55;;;21.80;34.50;;;;;;5121280;28;20031;-35
2024/01/23 06:53:47;;;;;;;2.55;1.73;;;21.70;34.50;;;;;;5114473;28;20499;-36
2024/01/23 06:56:14;;;;;;;2.17;1.40;;;21.70;34.60;;;;;;5121577;28;20024;-36
2024/01/23 06:58:40;;;;;;;2.00;1.40;;;21.70;34.50;;;;;;5111100;28;20027;-35
2024/01/23 07:01:06;;;;;;;1.50;1.38;;;21.70;34.40;;;;;;5113015;28;20082;-35
2024/01/23 07:03:32;;;;;;;1.70;1.30;;;21.80;34.60;;;;;;5113607;28;20039;-36
2024/01/23 07:05:58;;;;;;;3.13;1.75;;;21.80;34.60;;;;;;5114650;28;20023;-37
2024/01/23 07:08:24;;;;;;;1.63;1.30;;;21.70;34.70;;;;;;5113673;28;20064;-36
2024/01/23 07:10:50;;;;;;;2.28;1.20;;;21.70;34.70;;;;;;5113552;28;20048;-37
2024/01/23 07:13:16;;;;;;;1.60;1.38;;;21.70;34.60;;;;;;5115221;28;20303;-37
2024/01/23 07:15:42;;;;;;;1.75;1.30;;;21.80;34.50;;;;;;5114164;28;20087;-34
2024/01/23 07:18:08;;;;;;;1.75;1.40;;;21.80;34.50;;;;;;5113240;28;20027;-38
2024/01/23 07:20:35;;;;;;;1.75;1.40;;;21.80;34.40;;;;;;5113232;28;20023;-35
2024/01/23 07:23:01;;;;;;;2.17;1.55;;;21.70;34.40;;;;;;5111573;28;20039;-33
2024/01/23 07:25:27;;;;;;;1.58;1.20;;;21.70;35.00;;;;;;5112853;28;20048;-34
2024/01/23 07:27:53;;;;;;;2.38;1.40;;;21.70;34.40;;;;;;5114394;28;20068;-37
2024/01/23 07:30:20;;;;;;;1.77;1.48;;;21.80;34.40;;;;;;5115229;28;20044;-38
2024/01/23 07:32:46;;;;;;;1.80;1.20;;;21.80;34.40;;;;;;5118433;28;20034;-35
2024/01/23 07:35:14;;;;;;;1.33;1.15;;;21.70;34.30;;;;;;5116738;28;20054;-36
2024/01/23 07:37:40;;;;;;;1.85;1.02;;;21.70;34.40;;;;;;5119136;28;20031;-35
2024/01/23 07:40:06;;;;;;;2.13;1.30;;;21.70;34.50;;;;;;5118166;28;20034;-38
2024/01/23 07:42:32;;;;;;;1.52;1.23;;;21.70;34.60;;;;;;5120426;28;20031;-36
2024/01/23 07:44:59;;;;;;;1.55;1.30;;;21.80;34.60;;;;;;5114369;28;20091;-36
2024/01/23 07:47:25;;;;;;;1.55;1.20;;;21.80;34.50;;;;;;5117945;28;20118;-34
2024/01/23 07:49:51;;;;;;;2.92;1.30;;;21.80;34.50;;;;;;5119321;28;20036;-36
2024/01/23 07:52:19;;;;;;;1.45;1.23;;;21.70;34.50;;;;;;5110298;28;20536;-34
2024/01/23 07:54:45;;;;;;;1.20;1.10;;;21.70;34.60;;;;;;5108695;28;20070;-36
2024/01/23 07:57:11;;;;;;;1.50;1.17;;;21.70;34.60;;;;;;5116524;28;20091;-34
2024/01/23 07:59:39;;;;;;;1.48;1.30;;;21.70;34.50;;;;;;5118243;28;20032;-36
2024/01/23 08:02:05;;;;;;;1.73;1.20;;;21.80;34.50;;;;;;5109362;28;20034;-37
2024/01/23 08:04:31;;;;;;;1.60;1.20;;;21.70;34.60;;;;;;5117906;28;20054;-34
2024/01/23 08:06:58;;;;;;;1.67;1.20;;;21.70;34.90;;;;;;5106229;28;20023;-34
2024/01/23 08:09:24;;;;;;;1.58;1.30;;;21.70;35.20;;;;;;5118001;28;20039;-36
2024/01/23 08:11:52;;;;;;;1.67;1.40;;;21.70;35.00;;;;;;5116321;28;20024;-36
2024/01/23 08:14:18;;;;;;;1.98;1.20;;;21.80;35.00;;;;;;5108587;28;20027;-36
2024/01/23 08:16:45;;;;;;;1.20;1.10;;;21.80;34.80;;;;;;5111700;28;20024;-37
2024/01/23 08:19:11;;;;;;;1.48;1.15;;;21.80;34.70;;;;;;5106827;28;20050;-34
2024/01/23 08:21:37;;;;;;;1.65;1.30;;;21.70;34.80;;;;;;5104408;28;20035;-35
2024/01/23 08:24:04;;;;;;;1.40;1.17;;;21.70;34.90;;;;;;5111805;28;20016;-35
2024/01/23 08:26:30;;;;;;;3.45;1.10;;;21.70;34.80;;;;;;5107901;28;20028;-37
2024/01/23 08:28:58;;;;;;;1.70;1.33;;;21.80;34.80;;;;;;5116641;28;20051;-37
2024/01/23 08:31:24;;;;;;;1.50;1.30;;;21.80;34.70;;;;;;5110010;28;20106;-34
2024/01/23 08:33:50;;;;;;;1.65;1.35;;;21.80;34.80;;;;;;5108451;28;20056;-35
2024/01/23 08:36:17;;;;;;;3.22;1.10;;;21.70;34.80;;;;;;5111840;28;20047;-33
2024/01/23 08:38:43;;;;;;;1.40;1.10;;;21.70;34.90;;;;;;5105614;28;20028;-36
2024/01/23 08:41:10;;;;;;;1.30;1.20;;;21.70;34.80;;;;;;5114046;28;20030;-36
2024/01/23 08:43:36;;;;;;;1.50;1.10;;;21.80;34.80;;;;;;5115112;28;20032;-38
2024/01/23 08:46:03;;;;;;;1.52;1.27;;;21.80;34.70;;;;;;5111747;28;20020;-38
2024/01/23 08:48:29;;;;;;;1.65;1.08;;;21.80;34.70;;;;;;5116369;28;20556;-35
2024/01/23 08:50:55;;;;;;;1.92;1.30;;;21.70;34.70;;;;;;5114355;28;20043;-34
2024/01/23 08:53:21;;;;;;;1.70;1.48;;;21.70;34.80;;;;;;5108220;28;20504;-35
2024/01/23 08:55:48;;;;;;;1.98;1.30;;;21.70;34.90;;;;;;5108910;28;20028;-36
2024/01/23 08:58:17;;;;;;;1.20;1.10;;;21.80;34.80;;;;;;5116140;28;20028;-38
2024/01/23 09:00:44;;;;;;;1.70;1.20;;;21.80;34.80;;;;;;5116081;28;20036;-36
2024/01/23 09:03:10;;;;;;;1.38;1.02;;;21.80;34.90;;;;;;5113969;28;20075;-36
2024/01/23 09:05:36;;;;;;;1.80;1.20;;;21.80;35.00;;;;;;5114178;28;20074;-37
2024/01/23 09:08:03;;;;;;;1.40;1.10;;;21.70;34.90;;;;;;5117059;28;20028;-36
2024/01/23 09:10:30;;;;;;;1.20;1.05;;;21.70;34.90;;;;;;5111468;28;20031;-35
2024/01/23 09:12:56;;;;;;;1.52;1.35;;;21.70;34.80;;;;;;5123580;28;20045;-36
2024/01/23 09:15:22;;;;;;;1.83;1.25;;;21.80;34.80;;;;;;5109653;28;20023;-35
2024/01/23 09:17:48;;;;;;;1.80;1.30;;;21.80;34.80;;;;;;5116995;28;20024;-37
2024/01/23 09:20:14;;;;;;;1.35;1.25;;;21.70;34.80;;;;;;5110477;28;20088;-36
2024/01/23 09:22:41;;;;;;;1.35;1.02;;;21.70;34.80;;;;;;5114644;28;20024;-37
2024/01/23 09:25:07;;;;;;;1.23;1.13;;;21.70;34.80;;;;;;5115479;28;20024;-36
2024/01/23 09:27:34;;;;;;;1.60;1.40;;;21.80;34.70;;;;;;5113128;28;20083;-35
2024/01/23 09:30:00;;;;;;;2.05;1.40;;;21.80;34.70;;;;;;5115120;28;20115;-35
2024/01/23 09:32:26;;;;;;;1.10;1.00;;;21.80;34.70;;;;;;5115052;28;20020;-35
2024/01/23 09:34:52;;;;;;;2.35;1.27;;;21.80;34.70;;;;;;5120134;28;20041;-36
2024/01/23 09:37:18;;;;;;;1.40;1.17;;;21.70;34.70;;;;;;5122079;28;20022;-35
2024/01/23 09:39:44;;;;;;;1.15;1.05;;;21.70;34.70;;;;;;5112254;28;20043;-36
2024/01/23 09:42:10;;;;;;;1.80;1.40;;;21.70;34.60;;;;;;5121684;28;20019;-37
2024/01/23 09:44:39;;;;;;;1.20;1.10;;;21.80;34.60;;;;;;5116659;28;20043;-37
2024/01/23 09:47:05;;;;;;;1.65;1.20;;;21.80;34.60;;;;;;5122209;28;20024;-36
2024/01/23 09:49:32;;;;;;;1.63;1.27;;;21.80;34.70;;;;;;5111953;28;20062;-38
2024/01/23 09:52:00;;;;;;;1.50;1.10;;;21.70;34.80;;;;;;5110648;28;20023;-36
2024/01/23 09:54:27;;;;;;;1.83;1.35;;;21.70;34.80;;;;;;5112628;28;20031;-34
2024/01/23 09:56:53;;;;;;;1.65;1.30;;;21.70;34.70;;;;;;5113809;28;20135;-35
2024/01/23 09:59:21;;;;;;;1.27;1.15;;;21.80;34.70;;;;;;5117416;27;20028;-33
2024/01/23 10:01:47;;;;;;;1.60;1.30;;;21.80;34.70;;;;;;5113410;28;20032;-33
2024/01/23 10:04:15;;;;;;;1.80;1.30;;;21.80;34.80;;;;;;5113922;28;20036;-38
2024/01/23 10:06:41;;;;;;;2.78;1.40;;;21.70;34.70;;;;;;5110000;28;20043;-35
2024/01/23 10:09:07;;;;;;;1.40;1.10;;;21.70;34.80;;;;;;5121053;28;20477;-37
2024/01/23 10:11:34;;;;;;;1.20;1.10;;;21.70;34.90;;;;;;5120619;28;20046;-37
2024/01/23 10:14:01;;;;;;;;;;;21.80;34.90;;;;;;5110458;28;20083;-37
2024/01/23 10:16:27;;;;;;;1.88;1.25;;;21.80;34.90;;;;;;5118898;27;20002;-37
2024/01/23 10:18:53;;;;;;;1.35;1.10;;;21.80;34.90;;;;;;5112227;28;20031;-35
2024/01/23 10:21:22;;;;;;;1.10;0.95;;;21.80;34.80;;;;;;5115492;28;20024;-36
2024/01/23 10:23:49;;;;;;;1.60;1.25;;;21.70;34.90;;;;;;5115527;28;20039;-35
2024/01/23 10:26:19;;;;;;;1.73;1.48;;;21.70;34.80;;;;;;5111159;28;20032;-36
2024/01/23 10:28:46;;;;;;;1.40;1.10;;;21.80;34.70;;;;;;5110021;28;20056;-38
2024/01/23 10:31:12;;;;;;;1.90;1.50;;;21.80;34.70;;;;;;5112961;28;20031;-35
2024/01/23 10:33:39;;;;;;;1.98;1.20;;;21.80;34.80;;;;;;5112958;28;20044;-33
2024/01/23 10:36:07;;;;;;;1.33;1.20;;;21.80;34.80;;;;;;5113006;28;20031;-36
2024/01/23 10:38:35;;;;;;;1.23;1.05;;;21.70;35.00;;;;;;5115624;28;20733;-37
2024/01/23 10:41:04;;;;;;;1.45;1.17;;;21.70;35.20;;;;;;5115627;28;20042;-36
2024/01/23 10:43:30;;;;;;;2.35;1.42;;;21.80;35.00;;;;;;5115372;28;20032;-35
2024/01/23 10:45:59;;;;;;;1.30;1.20;;;21.80;34.90;;;;;;5113559;28;20040;-38
2024/01/23 10:48:26;;;;;;;2.00;1.50;;;21.80;34.90;;;;;;5112458;28;20028;-37
2024/01/23 10:50:53;;;;;;;1.70;1.13;;;21.80;35.00;;;;;;5112498;28;20028;-35
2024/01/23 10:53:19;;;;;;;2.03;1.27;;;21.80;35.00;;;;;;5110176;28;20039;-32
2024/01/23 10:55:46;;;;;;;1.63;1.33;;;21.80;35.00;;;;;;5114222;28;20040;-36
2024/01/23 10:58:20;;;;;;;1.38;1.25;;;21.80;34.80;;;;;;5114011;28;20032;-38
2024/01/23 11:00:47;;;;;;;1.50;1.23;;;21.80;34.80;;;;;;5115646;28;20096;-35
2024/01/23 11:03:13;;;;;;;1.92;1.40;;;21.80;34.90;;;;;;5103680;28;20075;-35
2024/01/23 11:05:52;;;;;;;1.50;1.20;;;21.80;35.10;;;;;;5109483;28;20473;-36
2024/01/23 11:08:21;;;;;;;1.70;1.23;;;21.80;35.30;;;;;;5090261;28;20036;-35
2024/01/23 11:10:55;;;;;;;1.60;1.23;;;21.80;35.30;;;;;;5096372;28;20015;-31
2024/01/23 11:13:41;;;;;;;1.50;1.23;;;21.80;35.00;;;;;;5109944;28;20805;-33
2024/01/23 11:16:08;;;;;;;1.20;1.05;;;21.90;35.10;;;;;;5107879;28;20676;-34
2024/01/23 11:18:34;;;;;;;1.60;1.20;;;21.90;35.00;;;;;;5114034;28;20059;-34
2024/01/23 11:21:09;;;;;;;1.73;1.20;;;21.80;35.10;;;;;;5115034;28;20035;-30
2024/01/23 11:23:40;;;;;;;1.42;1.20;;;21.80;35.10;;;;;;5106105;28;20097;-36
2024/01/23 11:26:15;;;;;;;1.48;1.15;;;21.80;35.10;;;;;;5113410;28;20054;-31
2024/01/23 11:28:43;;;;;;;1.70;0.98;;;21.80;35.10;;;;;;5106302;28;20048;-33
2024/01/23 11:31:13;;;;;;;1.70;1.30;;;21.90;35.10;;;;;;5114238;28;20115;-35
2024/01/23 11:33:39;;;;;;;2.08;1.00;;;21.90;35.20;;;;;;5111371;28;20059;-31
2024/01/23 11:36:12;;;;;;;1.52;1.30;;;21.80;35.20;;;;;;5114264;28;20024;-31
2024/01/23 11:38:42;;;;;;;1.55;1.15;;;21.80;35.20;;;;;;5113200;28;20379;-33
2024/01/23 11:41:35;;;;;;;1.40;1.08;;;21.80;35.30;;;;;;5112497;28;20765;-33
2024/01/23 11:44:04;;;;;;;1.40;1.10;;;21.90;35.30;;;;;;5108978;28;20107;-33
2024/01/23 11:46:31;;;;;;;1.75;1.35;;;21.90;35.30;;;;;;5112328;28;20055;-33
2024/01/23 11:48:57;;;;;;;1.33;1.20;;;21.90;35.40;;;;;;5111436;28;20043;-34
2024/01/23 11:51:24;;;;;;;2.25;1.30;;;21.90;35.60;;;;;;5112170;28;20031;-33
2024/01/23 11:53:50;;;;;;;1.20;1.10;;;21.80;35.80;;;;;;5112591;28;20035;-32
2024/01/23 11:56:16;;;;;;;1.35;1.15;;;21.80;35.80;;;;;;5112509;28;20032;-32
2024/01/23 11:58:42;;;;;;;1.17;1.02;;;21.90;35.70;;;;;;5112935;28;20031;-34
2024/01/23 12:01:09;;;;;;;1.45;1.10;;;21.90;35.70;;;;;;5119475;28;20055;-33
2024/01/23 12:03:36;;;;;;;1.30;1.10;;;21.90;35.80;;;;;;5112329;28;20092;-31
2024/01/23 12:06:02;;;;;;;1.17;1.00;;;21.90;35.80;;;;;;5113667;28;20020;-33
2024/01/23 12:08:28;;;;;;;1.23;1.10;;;21.80;35.80;;;;;;5109785;28;20039;-35
2024/01/23 12:10:58;;;;;;;1.42;1.10;;;21.90;35.80;;;;;;5120254;28;20058;-33
2024/01/23 12:13:24;;;;;;;1.38;1.00;;;21.90;35.80;;;;;;5108476;28;20035;-32
2024/01/23 12:15:51;;;;;;;1.52;1.00;;;21.90;35.70;;;;;;5110260;28;20027;-36
2024/01/23 12:18:21;;;;;;;0.95;0.85;;;21.90;35.80;;;;;;5113210;28;20047;-35
2024/01/23 12:20:48;;;;;;;1.33;1.23;;;21.90;35.90;;;;;;5113090;28;20076;-32
2024/01/23 12:23:16;;;;;;;1.30;1.10;;;21.90;35.90;;;;;;5112971;28;20027;-34
2024/01/23 12:25:42;;;;;;;1.38;1.00;;;21.90;36.00;;;;;;5110521;28;20032;-31
2024/01/23 12:28:08;;;;;;;1.83;1.30;;;21.90;36.00;;;;;;5113789;28;20040;-33
2024/01/23 12:30:34;;;;;;;1.30;1.20;;;22.00;36.20;;;;;;5116747;28;20027;-33
2024/01/23 12:33:00;;;;;;;1.10;1.00;;;21.90;36.20;;;;;;5115163;27;20031;-33
2024/01/23 12:35:26;;;;;;;1.95;1.25;;;21.90;36.40;;;;;;5116394;28;20031;-35
2024/01/23 12:37:52;;;;;;;2.08;1.02;;;21.90;36.50;;;;;;5117380;28;20030;-35
2024/01/23 12:40:20;;;;;;;1.38;1.17;;;21.90;36.40;;;;;;5117470;28;20028;-36
2024/01/23 12:42:49;;;;;;;1.40;1.10;;;21.90;36.90;;;;;;5116642;28;20040;-32
2024/01/23 12:45:19;;;;;;;1.90;1.30;;;21.90;36.10;;;;;;5116797;28;20031;-32